Anthony, West Virginia
Current Conditions -  °F | °C
As of 12:35 AM on Wednesday 26 Nov 2014 (Local Time) from KLWB Reporting Station
Overcast Overcast  
Wind Chill: 34°   Ceiling: 12000
Heat Index: 38°   Visibility: 10mi
Dew Point: 28°   Wind: 5mph
Humidity: 69%   Direction: 70°ENE
Pressure: 30.07"   Gusts: NA
Location:  38.0307°N, 80.4756°W
Report Text: KLWB 260535Z AUTO 07004KT 10SM OVC120 03/M02 A3007 RMK AO2 T00311020
Loading
Personal Weather Stations






























Interactive Weather Map New forecast layout! Learn more

10-Day Weather Forecast

Advertisements
Track Severe Weather on mobile